createdAt,value
2018-01-26T00:00:07.971Z,970.24
2018-01-26T00:01:07.955Z,970.22
2018-01-26T00:02:07.942Z,970.23
2018-01-26T00:03:07.926Z,970.23
2018-01-26T00:04:07.919Z,970.22
2018-01-26T00:05:07.908Z,970.19
2018-01-26T00:06:07.887Z,970.21
2018-01-26T00:07:07.885Z,970.15
2018-01-26T00:08:07.856Z,970.19
2018-01-26T00:09:07.847Z,970.12
2018-01-26T00:10:07.832Z,970.13
2018-01-26T00:11:07.817Z,970.13
2018-01-26T00:12:07.802Z,970.08
2018-01-26T00:13:07.789Z,970.06
2018-01-26T00:14:07.774Z,970.00
2018-01-26T00:15:07.758Z,969.94
2018-01-26T00:16:07.752Z,969.98
2018-01-26T00:17:07.734Z,970.04
2018-01-26T00:18:07.718Z,970.10
2018-01-26T00:19:07.702Z,970.12
2018-01-26T00:20:07.694Z,970.11
2018-01-26T00:21:07.684Z,970.11
2018-01-26T00:22:07.660Z,970.15
2018-01-26T00:23:07.653Z,970.17
2018-01-26T00:24:07.640Z,970.18
2018-01-26T00:25:07.617Z,970.12
2018-01-26T00:26:07.608Z,970.12
2018-01-26T00:27:07.595Z,970.16
2018-01-26T00:28:07.583Z,970.11
2018-01-26T00:29:07.565Z,970.16
2018-01-26T00:30:07.555Z,970.16
2018-01-26T00:31:07.538Z,970.13
2018-01-26T00:32:07.521Z,970.18
2018-01-26T00:33:07.505Z,970.15
2018-01-26T00:34:07.493Z,970.15
2018-01-26T00:35:07.475Z,970.19
2018-01-26T00:36:07.462Z,970.19
2018-01-26T00:37:07.449Z,970.09
2018-01-26T00:38:07.441Z,970.10
2018-01-26T00:39:07.422Z,970.12
2018-01-26T00:40:07.444Z,970.11
2018-01-26T00:41:07.392Z,970.10
2018-01-26T00:42:07.375Z,970.10
2018-01-26T00:43:07.363Z,970.05
2018-01-26T00:44:07.354Z,969.99
2018-01-26T00:45:07.337Z,969.98
2018-01-26T00:46:07.323Z,970.01
2018-01-26T00:47:07.306Z,970.01
2018-01-26T00:48:07.294Z,970.01
2018-01-26T00:49:07.278Z,970.06
2018-01-26T00:50:07.264Z,970.04
2018-01-26T00:51:07.249Z,970.05
2018-01-26T00:52:07.237Z,970.07
2018-01-26T00:53:07.221Z,970.10
2018-01-26T00:54:07.205Z,970.08
2018-01-26T00:55:07.198Z,970.11
2018-01-26T00:56:07.185Z,970.05
2018-01-26T00:57:07.165Z,970.03
2018-01-26T00:58:07.148Z,969.99
2018-01-26T00:59:07.137Z,969.99
2018-01-26T01:00:07.120Z,969.98
2018-01-26T01:01:07.110Z,970.01
2018-01-26T01:02:07.093Z,970.09
2018-01-26T01:03:07.078Z,970.11
2018-01-26T01:04:07.073Z,970.09
2018-01-26T01:05:07.057Z,970.02
2018-01-26T01:06:07.041Z,969.96
2018-01-26T01:07:07.027Z,969.91
2018-01-26T01:08:07.008Z,969.90
2018-01-26T01:09:07.003Z,969.93
2018-01-26T01:10:06.977Z,969.95
2018-01-26T01:11:06.962Z,969.96
2018-01-26T01:12:06.949Z,969.93
2018-01-26T01:13:06.938Z,969.90
2018-01-26T01:14:06.924Z,969.94
2018-01-26T01:15:06.908Z,969.99
2018-01-26T01:16:06.893Z,970.03
2018-01-26T01:17:06.882Z,969.98
2018-01-26T01:18:06.866Z,969.98
2018-01-26T01:19:06.850Z,970.00
2018-01-26T01:20:06.834Z,969.94
2018-01-26T01:21:06.820Z,969.88
2018-01-26T01:22:06.805Z,969.86
2018-01-26T01:23:06.796Z,969.82
2018-01-26T01:24:06.777Z,969.83
2018-01-26T01:25:06.763Z,969.80
2018-01-26T01:26:06.753Z,969.75
2018-01-26T01:27:06.741Z,969.74
2018-01-26T01:28:06.726Z,969.72
2018-01-26T01:29:06.705Z,969.76
2018-01-26T01:30:06.698Z,969.81
2018-01-26T01:31:06.677Z,969.82
2018-01-26T01:32:06.662Z,969.83
2018-01-26T01:33:06.649Z,969.82
2018-01-26T01:34:06.640Z,969.80
2018-01-26T01:35:06.622Z,969.78
2018-01-26T01:36:06.610Z,969.78
2018-01-26T01:37:06.594Z,969.81
2018-01-26T01:38:06.578Z,969.80
2018-01-26T01:39:06.569Z,969.78
2018-01-26T01:40:06.550Z,969.75
2018-01-26T01:41:06.534Z,969.71
2018-01-26T01:42:06.521Z,969.71
2018-01-26T01:43:06.505Z,969.72
2018-01-26T01:44:06.494Z,969.73
2018-01-26T01:45:06.483Z,969.72
2018-01-26T01:46:06.464Z,969.74
2018-01-26T01:47:06.455Z,969.72
2018-01-26T01:48:06.436Z,969.73
2018-01-26T01:49:06.421Z,969.74
2018-01-26T01:50:06.408Z,969.73
2018-01-26T01:51:06.392Z,969.68
2018-01-26T01:52:06.382Z,969.68
2018-01-26T01:53:06.363Z,969.67
2018-01-26T01:54:06.353Z,969.69
2018-01-26T01:55:06.338Z,969.66
2018-01-26T01:56:06.322Z,969.66
2018-01-26T01:57:06.310Z,969.57
2018-01-26T01:58:06.297Z,969.60
2018-01-26T01:59:06.277Z,969.55
2018-01-26T02:00:06.262Z,969.61
2018-01-26T02:01:06.257Z,969.61
2018-01-26T02:02:06.235Z,969.67
2018-01-26T02:03:06.219Z,969.68
2018-01-26T02:04:06.204Z,969.70
2018-01-26T02:05:06.193Z,969.67
2018-01-26T02:06:06.178Z,969.67
2018-01-26T02:07:06.161Z,969.62
2018-01-26T02:08:06.147Z,969.61
2018-01-26T02:09:06.137Z,969.66
2018-01-26T02:10:06.123Z,969.66
2018-01-26T02:11:06.104Z,969.64
2018-01-26T02:12:06.089Z,969.63
2018-01-26T02:13:06.082Z,969.63
2018-01-26T02:14:06.061Z,969.59
2018-01-26T02:15:06.052Z,969.58
2018-01-26T02:16:06.032Z,969.56
2018-01-26T02:17:06.022Z,969.54
2018-01-26T02:18:06.003Z,969.51
2018-01-26T02:19:05.986Z,969.56
2018-01-26T02:20:05.972Z,969.58
2018-01-26T02:21:05.957Z,969.53
2018-01-26T02:22:05.941Z,969.51
2018-01-26T02:23:05.930Z,969.49
2018-01-26T02:24:05.912Z,969.50
2018-01-26T02:25:05.907Z,969.49
2018-01-26T02:26:05.882Z,969.42
2018-01-26T02:27:05.870Z,969.46
2018-01-26T02:28:05.857Z,969.41
2018-01-26T02:29:05.839Z,969.42
2018-01-26T02:30:05.823Z,969.37
2018-01-26T02:31:05.810Z,969.42
2018-01-26T02:32:05.794Z,969.47
2018-01-26T02:33:05.781Z,969.44
2018-01-26T02:34:05.770Z,969.43
2018-01-26T02:35:05.751Z,969.41
2018-01-26T02:36:05.740Z,969.39
2018-01-26T02:37:05.721Z,969.43
2018-01-26T02:38:05.712Z,969.40
2018-01-26T02:39:05.694Z,969.39
2018-01-26T02:40:05.681Z,969.36
2018-01-26T02:41:05.662Z,969.37
2018-01-26T02:42:05.646Z,969.33
2018-01-26T02:43:05.639Z,969.40
2018-01-26T02:44:05.621Z,969.43
2018-01-26T02:45:05.609Z,969.48
2018-01-26T02:46:05.587Z,969.49
2018-01-26T02:47:05.581Z,969.47
2018-01-26T02:48:05.564Z,969.43
2018-01-26T02:49:05.542Z,969.41
2018-01-26T02:50:05.533Z,969.40
2018-01-26T02:51:05.513Z,969.46
2018-01-26T02:52:05.499Z,969.44
2018-01-26T02:53:05.484Z,969.44
2018-01-26T02:54:05.470Z,969.48
2018-01-26T02:55:05.456Z,969.46
2018-01-26T02:56:05.452Z,969.49
2018-01-26T02:57:05.424Z,969.45
2018-01-26T02:58:05.410Z,969.44
2018-01-26T02:59:05.394Z,969.47
2018-01-26T03:00:05.380Z,969.44
2018-01-26T03:01:05.365Z,969.45
2018-01-26T03:02:05.356Z,969.47
2018-01-26T03:03:05.338Z,969.45
2018-01-26T03:04:05.319Z,969.47
2018-01-26T03:05:05.305Z,969.43
2018-01-26T03:06:05.288Z,969.48
2018-01-26T03:07:05.275Z,969.45
2018-01-26T03:08:05.265Z,969.44
2018-01-26T03:09:05.247Z,969.46
2018-01-26T03:10:05.231Z,969.43
2018-01-26T03:11:05.220Z,969.42
2018-01-26T03:12:05.204Z,969.43
2018-01-26T03:13:05.187Z,969.42
2018-01-26T03:14:05.178Z,969.43
2018-01-26T03:15:05.165Z,969.44
2018-01-26T03:16:05.144Z,969.47
2018-01-26T03:17:05.132Z,969.55
2018-01-26T03:18:05.111Z,969.51
2018-01-26T03:19:05.094Z,969.52
2018-01-26T03:20:05.080Z,969.51
2018-01-26T03:21:05.072Z,969.54
2018-01-26T03:22:05.050Z,969.50
2018-01-26T03:23:05.035Z,969.50
2018-01-26T03:24:05.020Z,969.52
2018-01-26T03:25:05.011Z,969.53
2018-01-26T03:26:04.990Z,969.51
2018-01-26T03:27:04.974Z,969.48
2018-01-26T03:28:04.963Z,969.47
2018-01-26T03:29:04.947Z,969.48
2018-01-26T03:30:04.930Z,969.48
2018-01-26T03:31:04.916Z,969.48
2018-01-26T03:32:04.900Z,969.46
2018-01-26T03:33:04.886Z,969.44
2018-01-26T03:34:04.878Z,969.43
2018-01-26T03:35:04.856Z,969.41
2018-01-26T03:36:04.840Z,969.42
2018-01-26T03:37:04.827Z,969.43
2018-01-26T03:38:04.815Z,969.44
2018-01-26T03:39:04.794Z,969.48
2018-01-26T03:40:04.785Z,969.48
2018-01-26T03:41:04.765Z,969.44
2018-01-26T03:42:04.749Z,969.44
2018-01-26T03:43:04.743Z,969.48
2018-01-26T03:44:04.724Z,969.43
2018-01-26T03:45:04.708Z,969.45
2018-01-26T03:46:04.688Z,969.44
2018-01-26T03:47:04.681Z,969.44
2018-01-26T03:48:04.660Z,969.44
2018-01-26T03:49:04.646Z,969.49
2018-01-26T03:50:04.637Z,969.49
2018-01-26T03:51:04.616Z,969.48
2018-01-26T03:52:04.608Z,969.46
2018-01-26T03:53:04.585Z,969.52
2018-01-26T03:54:04.569Z,969.53
2018-01-26T03:55:04.556Z,969.57
2018-01-26T03:56:04.539Z,969.56
2018-01-26T03:57:04.524Z,969.60
2018-01-26T03:58:04.507Z,969.58
2018-01-26T03:59:04.496Z,969.55
2018-01-26T04:00:04.480Z,969.56
2018-01-26T04:01:04.461Z,969.59
2018-01-26T04:02:04.455Z,969.63
2018-01-26T04:03:04.431Z,969.62
2018-01-26T04:04:04.416Z,969.60
2018-01-26T04:05:04.402Z,969.61
2018-01-26T04:06:04.387Z,969.57
2018-01-26T04:07:04.376Z,969.56
2018-01-26T04:08:04.355Z,969.53
2018-01-26T04:09:04.341Z,969.54
2018-01-26T04:10:04.380Z,969.54
2018-01-26T04:11:04.310Z,969.63
2018-01-26T04:12:04.303Z,969.62
2018-01-26T04:13:04.279Z,969.59
2018-01-26T04:14:04.269Z,969.58
2018-01-26T04:15:04.247Z,969.52
2018-01-26T04:16:04.233Z,969.53
2018-01-26T04:17:04.215Z,969.56
2018-01-26T04:18:04.200Z,969.62
2018-01-26T04:19:04.188Z,969.74
2018-01-26T04:20:04.171Z,969.65
2018-01-26T04:21:04.160Z,969.59
2018-01-26T04:22:04.140Z,969.54
2018-01-26T04:23:04.123Z,969.49
2018-01-26T04:24:04.107Z,969.50
2018-01-26T04:25:04.095Z,969.55
2018-01-26T04:26:04.082Z,969.58
2018-01-26T04:27:04.060Z,969.55
2018-01-26T04:28:04.048Z,969.51
2018-01-26T04:29:04.036Z,969.48
2018-01-26T04:30:04.017Z,969.52
2018-01-26T04:31:04.005Z,969.54
2018-01-26T04:32:03.983Z,969.61
2018-01-26T04:33:03.973Z,969.55
2018-01-26T04:34:03.952Z,969.52
2018-01-26T04:35:03.936Z,969.57
2018-01-26T04:36:03.922Z,969.51
2018-01-26T04:37:03.906Z,969.53
2018-01-26T04:38:03.889Z,969.55
2018-01-26T04:39:03.874Z,969.50
2018-01-26T04:40:03.864Z,969.49
2018-01-26T04:41:03.843Z,969.49
2018-01-26T04:42:03.828Z,969.49
2018-01-26T04:43:03.812Z,969.49
2018-01-26T04:44:03.799Z,969.48
2018-01-26T04:45:03.781Z,969.48
2018-01-26T04:46:03.766Z,969.43
2018-01-26T04:47:03.756Z,969.45
2018-01-26T04:48:03.737Z,969.45
2018-01-26T04:49:03.718Z,969.47
2018-01-26T04:50:03.704Z,969.47
2018-01-26T04:51:03.690Z,969.45
2018-01-26T04:52:03.681Z,969.42
2018-01-26T04:53:03.656Z,969.39
2018-01-26T04:54:03.645Z,969.41
2018-01-26T04:55:03.634Z,969.39
2018-01-26T04:56:03.617Z,969.34
2018-01-26T04:57:03.596Z,969.35
2018-01-26T04:58:03.580Z,969.32
2018-01-26T04:59:03.562Z,969.35
2018-01-26T05:00:03.553Z,969.38
2018-01-26T05:01:03.538Z,969.38
2018-01-26T05:02:03.517Z,969.43
2018-01-26T05:03:03.506Z,969.41
2018-01-26T05:04:03.491Z,969.42
2018-01-26T05:05:03.470Z,969.43
2018-01-26T05:06:03.455Z,969.44
2018-01-26T05:07:03.438Z,969.43
2018-01-26T05:08:03.428Z,969.42
2018-01-26T05:09:03.407Z,969.38
2018-01-26T05:10:03.391Z,969.40
2018-01-26T05:11:03.378Z,969.41
2018-01-26T05:12:03.369Z,969.42
2018-01-26T05:13:03.348Z,969.44
2018-01-26T05:14:03.331Z,969.46
2018-01-26T05:15:03.317Z,969.50
2018-01-26T05:16:03.299Z,969.48
2018-01-26T05:17:03.289Z,969.51
2018-01-26T05:18:03.270Z,969.51
2018-01-26T05:19:03.254Z,969.53
2018-01-26T05:20:03.237Z,969.55
2018-01-26T05:21:03.221Z,969.54
2018-01-26T05:22:03.212Z,969.56
2018-01-26T05:23:03.196Z,969.60
2018-01-26T05:24:03.175Z,969.59
2018-01-26T05:25:03.167Z,969.63
2018-01-26T05:26:03.142Z,969.59
2018-01-26T05:27:03.127Z,969.59
2018-01-26T05:28:03.112Z,969.59
2018-01-26T05:29:03.125Z,969.65
2018-01-26T05:30:03.093Z,969.63
2018-01-26T05:31:03.064Z,969.67
2018-01-26T05:32:03.056Z,969.68
2018-01-26T05:33:03.034Z,969.70
2018-01-26T05:34:03.017Z,969.69
2018-01-26T05:35:03.009Z,969.73
2018-01-26T05:36:02.988Z,969.71
2018-01-26T05:37:02.978Z,969.73
2018-01-26T05:38:02.955Z,969.75
2018-01-26T05:39:02.941Z,969.73
2018-01-26T05:40:02.928Z,969.82
2018-01-26T05:41:02.909Z,969.81
2018-01-26T05:42:02.892Z,969.83
2018-01-26T05:43:02.877Z,969.83
2018-01-26T05:44:02.923Z,969.84
2018-01-26T05:45:02.847Z,969.86
2018-01-26T05:46:02.834Z,969.88
2018-01-26T05:47:02.816Z,969.87
2018-01-26T05:48:02.801Z,969.85
2018-01-26T05:49:02.785Z,969.86
2018-01-26T05:50:02.768Z,969.90
2018-01-26T05:51:02.753Z,969.88
2018-01-26T05:52:02.739Z,969.87
2018-01-26T05:53:02.722Z,969.92
2018-01-26T05:54:02.704Z,969.86
2018-01-26T05:55:02.688Z,969.81
2018-01-26T05:56:02.722Z,969.87
2018-01-26T05:57:02.664Z,969.93
2018-01-26T05:58:02.640Z,969.93
2018-01-26T05:59:02.626Z,969.90
2018-01-26T06:00:02.611Z,969.90
2018-01-26T06:01:02.594Z,969.92
2018-01-26T06:02:02.579Z,969.93
2018-01-26T06:03:02.565Z,969.91
2018-01-26T06:04:02.549Z,969.93
2018-01-26T06:05:02.535Z,969.94
2018-01-26T06:06:02.521Z,969.93
2018-01-26T06:07:02.501Z,969.88
2018-01-26T06:08:02.484Z,969.88
2018-01-26T06:09:02.472Z,969.89
2018-01-26T06:10:02.456Z,969.87
2018-01-26T06:11:02.437Z,969.87
2018-01-26T06:12:02.424Z,969.88
2018-01-26T06:13:02.406Z,969.91
2018-01-26T06:14:02.390Z,969.90
2018-01-26T06:15:02.381Z,969.90
2018-01-26T06:16:02.356Z,969.94
2018-01-26T06:17:02.351Z,969.93
2018-01-26T06:18:02.330Z,969.97
2018-01-26T06:19:02.311Z,969.94
2018-01-26T06:20:02.308Z,969.99
2018-01-26T06:21:02.279Z,969.93
2018-01-26T06:22:02.265Z,969.96
2018-01-26T06:23:02.246Z,970.00
2018-01-26T06:24:02.231Z,970.03
2018-01-26T06:25:02.215Z,969.95
2018-01-26T06:26:02.200Z,969.94
2018-01-26T06:27:02.189Z,969.96
2018-01-26T06:28:02.171Z,969.94
2018-01-26T06:29:02.157Z,969.95
2018-01-26T06:30:02.143Z,969.90
2018-01-26T06:31:02.121Z,969.89
2018-01-26T06:32:02.113Z,969.91
2018-01-26T06:33:02.091Z,969.91
2018-01-26T06:34:02.085Z,969.94
2018-01-26T06:35:02.062Z,969.93
2018-01-26T06:36:02.041Z,969.94
2018-01-26T06:37:02.026Z,969.92
2018-01-26T06:38:02.011Z,969.94
2018-01-26T06:39:02.002Z,969.91
2018-01-26T06:40:01.979Z,969.95
2018-01-26T06:41:01.966Z,969.92
2018-01-26T06:42:01.953Z,969.94
2018-01-26T06:43:01.939Z,969.94
2018-01-26T06:44:01.916Z,969.92
2018-01-26T06:45:01.902Z,969.95
2018-01-26T06:46:01.886Z,969.98
2018-01-26T06:47:01.870Z,969.98
2018-01-26T06:48:01.853Z,969.97
2018-01-26T06:49:01.838Z,970.00
2018-01-26T06:50:01.820Z,970.01
2018-01-26T06:51:01.807Z,970.07
2018-01-26T06:52:01.788Z,970.01
2018-01-26T06:53:01.772Z,970.09
2018-01-26T06:54:01.757Z,970.10
2018-01-26T06:55:01.744Z,970.05
2018-01-26T06:56:01.726Z,970.05
2018-01-26T06:57:01.709Z,970.05
2018-01-26T06:58:01.693Z,970.08
2018-01-26T06:59:01.683Z,970.06
2018-01-26T07:00:01.663Z,970.05
2018-01-26T07:01:01.648Z,970.10
2018-01-26T07:02:01.630Z,970.13
2018-01-26T07:03:01.618Z,970.11
2018-01-26T07:04:01.609Z,970.12
2018-01-26T07:05:01.597Z,970.10
2018-01-26T07:06:01.572Z,970.07
2018-01-26T07:07:01.566Z,970.05
2018-01-26T07:08:01.538Z,970.06
2018-01-26T07:09:01.525Z,970.07
2018-01-26T07:10:01.507Z,970.13
2018-01-26T07:11:01.495Z,970.14
2018-01-26T07:12:01.477Z,970.14
2018-01-26T07:13:01.463Z,970.14
2018-01-26T07:14:01.447Z,970.20
2018-01-26T07:15:01.426Z,970.23
2018-01-26T07:16:01.409Z,970.21
2018-01-26T07:17:01.401Z,970.21
2018-01-26T07:18:01.389Z,970.24
2018-01-26T07:19:01.361Z,970.29
2018-01-26T07:20:01.345Z,970.25
2018-01-26T07:21:01.330Z,970.27
2018-01-26T07:22:01.311Z,970.24
2018-01-26T07:23:01.303Z,970.30
2018-01-26T07:24:01.280Z,970.33
2018-01-26T07:25:01.269Z,970.35
2018-01-26T07:26:01.250Z,970.37
2018-01-26T07:27:01.231Z,970.37
2018-01-26T07:28:01.225Z,970.39
2018-01-26T07:29:01.203Z,970.42
2018-01-26T07:30:01.184Z,970.43
2018-01-26T07:31:01.168Z,970.41
2018-01-26T07:32:01.151Z,970.41
2018-01-26T07:33:01.135Z,970.44
2018-01-26T07:34:01.129Z,970.48
2018-01-26T07:35:01.104Z,970.50
2018-01-26T07:36:01.087Z,970.49
2018-01-26T07:37:01.072Z,970.49
2018-01-26T07:38:01.063Z,970.49
2018-01-26T07:39:01.039Z,970.52
2018-01-26T07:40:01.023Z,970.55
2018-01-26T07:41:01.008Z,970.57
2018-01-26T07:42:00.994Z,970.60
2018-01-26T07:43:00.975Z,970.61
2018-01-26T07:44:00.965Z,970.57
2018-01-26T07:45:00.944Z,970.56
2018-01-26T07:46:00.927Z,970.60
2018-01-26T07:47:00.913Z,970.59
2018-01-26T07:48:00.906Z,970.59
2018-01-26T07:49:00.881Z,970.54
2018-01-26T07:50:00.864Z,970.54
2018-01-26T07:51:00.858Z,970.51
2018-01-26T07:52:00.842Z,970.47
2018-01-26T07:53:00.818Z,970.46
2018-01-26T07:54:00.803Z,970.44
2018-01-26T07:55:00.785Z,970.43
2018-01-26T07:56:00.771Z,970.40
2018-01-26T07:57:00.757Z,970.45
2018-01-26T07:58:00.743Z,970.45
2018-01-26T07:59:00.729Z,970.47
2018-01-26T08:00:00.715Z,970.48
2018-01-26T08:01:00.697Z,970.51
2018-01-26T08:02:00.721Z,970.47
2018-01-26T08:03:00.665Z,970.50
2018-01-26T08:04:00.648Z,970.48
2018-01-26T08:05:00.640Z,970.48
2018-01-26T08:06:00.616Z,970.53
2018-01-26T08:07:00.604Z,970.52
2018-01-26T08:08:00.585Z,970.54
2018-01-26T08:09:00.570Z,970.60
2018-01-26T08:10:00.577Z,970.62
2018-01-26T08:11:00.543Z,970.58
2018-01-26T08:12:00.642Z,970.63
2018-01-26T08:13:00.507Z,970.67
2018-01-26T08:14:00.496Z,970.66
2018-01-26T08:15:00.478Z,970.65
2018-01-26T08:16:00.466Z,970.66
2018-01-26T08:17:00.446Z,970.68
2018-01-26T08:18:00.433Z,970.65
2018-01-26T08:19:00.416Z,970.61
2018-01-26T08:20:00.399Z,970.62
2018-01-26T08:21:00.432Z,970.64
2018-01-26T08:22:00.369Z,970.61
2018-01-26T08:23:00.353Z,970.64
2018-01-26T08:24:00.343Z,970.61
2018-01-26T08:25:00.329Z,970.64
2018-01-26T08:26:00.311Z,970.65
2018-01-26T08:27:00.296Z,970.61
2018-01-26T08:28:00.276Z,970.57
2018-01-26T08:29:00.265Z,970.56
2018-01-26T08:30:00.248Z,970.58
2018-01-26T08:31:00.238Z,970.60
2018-01-26T08:32:00.218Z,970.63
2018-01-26T08:33:00.209Z,970.69
2018-01-26T08:34:00.186Z,970.68
2018-01-26T08:35:00.182Z,970.73
2018-01-26T08:36:00.158Z,970.72
2018-01-26T08:37:00.143Z,970.77
2018-01-26T08:38:00.128Z,970.69
2018-01-26T08:39:00.113Z,970.75
2018-01-26T08:40:00.103Z,970.73
2018-01-26T08:41:00.082Z,970.74
2018-01-26T08:42:00.066Z,970.76
2018-01-26T08:43:00.062Z,970.80
2018-01-26T08:44:00.044Z,970.80
2018-01-26T08:45:00.038Z,970.82
2018-01-26T08:46:00.009Z,970.84
2018-01-26T08:46:59.994Z,970.81
2018-01-26T08:47:59.978Z,970.83
2018-01-26T08:48:59.965Z,970.85
2018-01-26T08:49:59.947Z,970.82
2018-01-26T08:50:59.934Z,970.84
2018-01-26T08:51:59.918Z,970.85
2018-01-26T08:52:59.904Z,970.83
2018-01-26T08:53:59.888Z,970.84
2018-01-26T08:54:59.873Z,970.87
2018-01-26T08:55:59.857Z,970.90
2018-01-26T08:56:59.845Z,970.89
2018-01-26T08:57:59.832Z,970.91
2018-01-26T08:58:59.814Z,970.87
2018-01-26T08:59:59.803Z,970.91
2018-01-26T09:00:59.784Z,970.95
2018-01-26T09:01:59.770Z,970.92
2018-01-26T09:02:59.759Z,970.99
2018-01-26T09:03:59.742Z,971.00
2018-01-26T09:04:59.726Z,970.97
2018-01-26T09:05:59.713Z,971.02
2018-01-26T09:06:59.731Z,971.04
2018-01-26T09:07:59.685Z,971.10
2018-01-26T09:08:59.677Z,971.12
2018-01-26T09:09:59.652Z,971.10
2018-01-26T09:10:59.650Z,971.11
2018-01-26T09:11:59.624Z,971.12
2018-01-26T09:12:59.612Z,971.12
2018-01-26T09:13:59.594Z,971.12
2018-01-26T09:14:59.581Z,971.12
2018-01-26T09:15:59.571Z,971.08
2018-01-26T09:16:59.598Z,971.12
2018-01-26T09:17:59.544Z,971.14
2018-01-26T09:18:59.525Z,971.09
2018-01-26T09:19:59.508Z,971.10
2018-01-26T09:20:59.495Z,971.07
2018-01-26T09:21:59.486Z,971.13
2018-01-26T09:22:59.466Z,971.10
2018-01-26T09:23:59.451Z,971.14
2018-01-26T09:24:59.436Z,971.08
2018-01-26T09:25:59.422Z,971.15
2018-01-26T09:26:59.408Z,971.17
2018-01-26T09:27:59.440Z,971.20
2018-01-26T09:28:59.382Z,971.21
2018-01-26T09:29:59.365Z,971.23
2018-01-26T09:30:59.351Z,971.20
2018-01-26T09:31:59.338Z,971.23
2018-01-26T09:32:59.323Z,971.22
2018-01-26T09:33:59.309Z,971.22
2018-01-26T09:34:59.300Z,971.21
2018-01-26T09:35:59.288Z,971.24
2018-01-26T09:36:59.266Z,971.26
2018-01-26T09:37:59.254Z,971.29
2018-01-26T09:38:59.244Z,971.32
2018-01-26T09:39:59.224Z,971.31
2018-01-26T09:40:59.212Z,971.33
2018-01-26T09:41:59.198Z,971.33
2018-01-26T09:42:59.184Z,971.35
2018-01-26T09:43:59.175Z,971.40
2018-01-26T09:44:59.161Z,971.42
2018-01-26T09:45:59.144Z,971.44
2018-01-26T09:46:59.132Z,971.49
2018-01-26T09:47:59.120Z,971.47
2018-01-26T09:48:59.112Z,971.52
2018-01-26T09:49:59.096Z,971.52
2018-01-26T09:50:59.083Z,971.54
2018-01-26T09:51:59.064Z,971.54
2018-01-26T09:52:59.058Z,971.57
2018-01-26T09:53:59.038Z,971.62
2018-01-26T09:54:59.022Z,971.61
2018-01-26T09:55:59.016Z,971.59
2018-01-26T09:56:58.996Z,971.65
2018-01-26T09:57:58.983Z,971.68
2018-01-26T09:58:58.972Z,971.66
2018-01-26T09:59:58.958Z,971.66
2018-01-26T10:00:58.947Z,971.66
2018-01-26T10:01:58.933Z,971.66
2018-01-26T10:02:58.917Z,971.64
2018-01-26T10:03:58.905Z,971.71
2018-01-26T10:04:58.893Z,971.69
2018-01-26T10:05:58.878Z,971.74
2018-01-26T10:06:58.866Z,971.71
2018-01-26T10:07:58.855Z,971.73
2018-01-26T10:08:58.842Z,971.72
2018-01-26T10:09:58.828Z,971.77
2018-01-26T10:10:58.822Z,971.78
2018-01-26T10:11:58.802Z,971.84
2018-01-26T10:12:58.792Z,971.86
2018-01-26T10:13:58.780Z,971.87
2018-01-26T10:14:58.769Z,971.92
2018-01-26T10:15:58.754Z,971.92
2018-01-26T10:16:58.741Z,971.96
2018-01-26T10:17:58.733Z,971.91
2018-01-26T10:18:58.719Z,971.92
2018-01-26T10:19:58.709Z,971.94
2018-01-26T10:20:58.692Z,971.97
2018-01-26T10:21:58.685Z,971.99
2018-01-26T10:22:58.668Z,971.98
2018-01-26T10:23:58.657Z,972.02
2018-01-26T10:24:58.647Z,972.00
2018-01-26T10:25:58.638Z,971.95
2018-01-26T10:26:58.621Z,972.02
2018-01-26T10:27:58.612Z,972.01
2018-01-26T10:28:58.598Z,972.05
2018-01-26T10:29:58.590Z,972.08
2018-01-26T10:30:58.577Z,972.06
2018-01-26T10:31:58.564Z,972.08
2018-01-26T10:32:58.552Z,972.08
2018-01-26T10:33:58.543Z,972.10
2018-01-26T10:34:58.530Z,972.13
2018-01-26T10:35:58.519Z,972.08
2018-01-26T10:36:58.508Z,972.06
2018-01-26T10:37:58.493Z,972.03
2018-01-26T10:38:58.484Z,972.09
2018-01-26T10:39:58.478Z,972.09
2018-01-26T10:40:58.467Z,972.08
2018-01-26T10:41:58.451Z,972.08
2018-01-26T10:42:58.437Z,972.09
2018-01-26T10:43:58.429Z,972.10
2018-01-26T10:44:58.414Z,972.07
2018-01-26T10:45:58.409Z,972.03
2018-01-26T10:46:58.392Z,972.07
2018-01-26T10:47:58.381Z,972.06
2018-01-26T10:48:58.369Z,972.08
2018-01-26T10:49:58.364Z,972.10
2018-01-26T10:50:58.346Z,972.10
2018-01-26T10:51:58.342Z,972.13
2018-01-26T10:52:58.331Z,972.13
2018-01-26T10:53:58.314Z,972.13
2018-01-26T10:54:58.308Z,972.13
2018-01-26T10:55:58.297Z,972.13
2018-01-26T10:56:58.281Z,972.13
2018-01-26T10:57:58.274Z,972.13
2018-01-26T10:58:58.258Z,972.11
2018-01-26T10:59:58.253Z,972.12
2018-01-26T11:00:58.236Z,972.17
2018-01-26T11:01:58.222Z,972.19
2018-01-26T11:02:58.219Z,972.19
2018-01-26T11:03:58.205Z,972.15
2018-01-26T11:04:58.189Z,972.17
2018-01-26T11:05:58.186Z,972.14
2018-01-26T11:06:58.176Z,972.08
2018-01-26T11:07:58.161Z,972.07
2018-01-26T11:08:58.149Z,972.12
2018-01-26T11:09:58.134Z,972.17
2018-01-26T11:10:58.121Z,972.17
2018-01-26T11:11:58.110Z,972.21
2018-01-26T11:12:58.100Z,972.18
2018-01-26T11:13:58.093Z,972.23
2018-01-26T11:14:58.079Z,972.23
2018-01-26T11:15:58.068Z,972.20
2018-01-26T11:16:58.054Z,972.21
2018-01-26T11:17:58.043Z,972.24
2018-01-26T11:18:58.033Z,972.27
2018-01-26T11:19:58.021Z,972.28
2018-01-26T11:20:58.011Z,972.27
2018-01-26T11:21:57.998Z,972.28
2018-01-26T11:22:57.986Z,972.27
2018-01-26T11:23:57.977Z,972.28
2018-01-26T11:24:57.966Z,972.24
2018-01-26T11:25:57.955Z,972.22
2018-01-26T11:26:57.942Z,972.23
2018-01-26T11:27:57.931Z,972.22
2018-01-26T11:28:57.928Z,972.21
2018-01-26T11:29:57.912Z,972.22
2018-01-26T11:30:57.898Z,972.23
2018-01-26T11:31:57.893Z,972.22
2018-01-26T11:32:57.876Z,972.19
2018-01-26T11:33:57.864Z,972.22
2018-01-26T11:34:57.855Z,972.19
2018-01-26T11:35:57.844Z,972.19
2018-01-26T11:36:57.834Z,972.19
2018-01-26T11:37:57.819Z,972.19
2018-01-26T11:38:57.812Z,972.17
2018-01-26T11:39:57.806Z,972.24
2018-01-26T11:40:57.788Z,972.22
2018-01-26T11:41:57.776Z,972.20
2018-01-26T11:42:57.769Z,972.26
2018-01-26T11:43:57.755Z,972.25
2018-01-26T11:44:57.742Z,972.29
2018-01-26T11:45:57.730Z,972.26
2018-01-26T11:46:57.726Z,972.28
2018-01-26T11:47:57.709Z,972.27
2018-01-26T11:48:57.697Z,972.27
2018-01-26T11:49:57.688Z,972.28
2018-01-26T11:50:57.676Z,972.29
2018-01-26T11:51:57.672Z,972.30
2018-01-26T11:52:57.660Z,972.28
2018-01-26T11:53:57.642Z,972.34
2018-01-26T11:54:57.631Z,972.28
2018-01-26T11:55:57.621Z,972.30
2018-01-26T11:56:57.609Z,972.29
2018-01-26T11:57:57.598Z,972.32
2018-01-26T11:58:57.586Z,972.33
2018-01-26T11:59:57.575Z,972.27
2018-01-26T12:00:57.571Z,972.26
2018-01-26T12:01:57.554Z,972.29
2018-01-26T12:02:57.546Z,972.26
2018-01-26T12:03:57.533Z,972.24
2018-01-26T12:04:57.524Z,972.23
2018-01-26T12:05:57.511Z,972.21
2018-01-26T12:06:57.506Z,972.19
2018-01-26T12:07:57.488Z,972.18
2018-01-26T12:08:57.476Z,972.22
2018-01-26T12:09:57.465Z,972.23
2018-01-26T12:10:57.457Z,972.20
2018-01-26T12:11:57.442Z,972.19
2018-01-26T12:12:57.433Z,972.23
2018-01-26T12:13:57.420Z,972.18
2018-01-26T12:14:57.417Z,972.22
2018-01-26T12:15:57.400Z,972.27
2018-01-26T12:16:57.390Z,972.27
2018-01-26T12:17:57.384Z,972.26
2018-01-26T12:18:57.372Z,972.28
2018-01-26T12:19:57.355Z,972.31
2018-01-26T12:20:57.345Z,972.29
2018-01-26T12:21:57.340Z,972.26
2018-01-26T12:22:57.321Z,972.29
2018-01-26T12:23:57.313Z,972.29
2018-01-26T12:24:57.304Z,972.27
2018-01-26T12:25:57.289Z,972.27
2018-01-26T12:26:57.280Z,972.26
2018-01-26T12:27:57.271Z,972.22